map of BHK home
BHK - Airport
Location
City:  Bukhara, Buxoro, Uzbekistan
Name:Bukhara International Airport
ICAO:UTSB
IATA:BHK

Details
Type:Airport (Aerodrome, Airfield)
Use:Public/Civil, International (customs port of entry)
Latitude:3946'30"N (39.775000)
Longitude:6429'00"E (64.483333)
Elevation:751 ft (229 m)
Variation:5.29E (WMM2015 magnetic declination)
0.06 annual change
Runways:1
Longest:9843 × 147 ft (3000 × 45 m), paved

Time
Time Zone:UTC+5
Local Time:

Weather
METAR:UTSB 190730Z 17002KT CAVOK 17/M04 Q1026 R19/CLRD70 NOSIG
TAF:UTSB 190500Z 1906/2006 VRB03KT 7000 NSC
TEMPO 1906/1917 24010KT

Related Locations
Nearby:
Farthest:IPC: 11495 mi / 18499 km
Easter Island (Isla de Pascua, Rapa Nui) [Mataveri Intl], VS, CL

Find:

   beyond  
but within

Other Information
Maps:
NOTAMs:
Links:
Sources:

  
  • flag of Uzbekistan
  

Sectional Chart

Flight Planning
at skyvector.com

Satellite Image

Google Maps Satellite view

 

Copyright © 2004-2018 Karl L. Swartz. All rights reserved.
The Great Circle Mapper name and logo are trademarks of the Great Circle Mapper.
All other trademarks mentioned herein belong to their respective owners.
Please see credits for attibutions and further copyright information.

  Follow gcmap on Facebook Follow gcmap on Twitter Follow gcmap on Google+ GCmap on LinkedIn

hCard Microformat

Geo Microformat